Time,TemperatureF,DewpointF,PressureIn,WindDirection,WindDirectionDegrees,WindSpeedMPH,WindSpeedGustMPH,Humidity,HourlyPrecipIn,Conditions,Clouds,dailyrainin,SolarRadiationWatts/m^2,SoftwareType,DateUTC
2013-07-27 00:02:00,67.0,66.0,30.40,SE,130,1.0,3.0,97,0.00,,,0.00,0.000000,,2013-07-27 04:02:00,
2013-07-27 00:43:00,66.0,65.0,30.41,NE,48,1.0,3.0,98,0.00,,,0.00,0.000000,,2013-07-27 04:43:00,
2013-07-27 00:53:00,66.0,65.0,30.41,NE,48,1.0,3.0,98,0.00,,,0.00,0.000000,,2013-07-27 04:53:00,
2013-07-27 01:02:00,66.0,65.0,30.41,NE,48,1.0,3.0,98,0.00,,,0.00,0.000000,,2013-07-27 05:02:00,
2013-07-27 01:43:00,67.0,67.0,30.41,East,98,2.0,4.0,99,0.00,,,0.00,0.000000,,2013-07-27 05:43:00,
2013-07-27 01:52:00,67.0,67.0,30.41,East,98,2.0,4.0,99,0.00,,,0.00,0.000000,,2013-07-27 05:52:00,
2013-07-27 02:02:00,67.0,67.0,30.41,East,98,2.0,4.0,99,0.00,,,0.00,0.000000,,2013-07-27 06:02:00,
2013-07-27 02:43:00,69.0,67.0,30.39,ESE,119,3.0,10.0,92,0.00,,,0.00,0.000000,,2013-07-27 06:43:00,
2013-07-27 02:52:00,69.0,67.0,30.39,ESE,119,3.0,10.0,92,0.00,,,0.00,0.000000,,2013-07-27 06:52:00,
2013-07-27 03:02:00,69.0,67.0,30.39,ESE,119,3.0,10.0,92,0.00,,,0.00,0.000000,,2013-07-27 07:02:00,
2013-07-27 03:34:00,68.0,65.0,30.36,ESE,103,3.0,8.0,90,0.00,,,0.00,0.000000,,2013-07-27 07:34:00,
2013-07-27 03:44:00,68.0,65.0,30.36,ESE,103,3.0,8.0,90,0.00,,,0.00,0.000000,,2013-07-27 07:44:00,
2013-07-27 03:53:00,68.0,65.0,30.36,ESE,103,3.0,8.0,90,0.00,,,0.00,0.000000,,2013-07-27 07:53:00,
2013-07-27 04:02:00,68.0,65.0,30.36,ESE,103,3.0,8.0,90,0.00,,,0.00,0.000000,,2013-07-27 08:02:00,
2013-07-27 04:32:00,65.0,64.0,30.36,SSW,203,1.0,5.0,97,0.00,,,0.00,0.000000,,2013-07-27 08:32:00,
2013-07-27 04:43:00,65.0,64.0,30.36,SSW,203,1.0,5.0,97,0.00,,,0.00,0.000000,,2013-07-27 08:43:00,
2013-07-27 04:53:00,65.0,64.0,30.36,SSW,203,1.0,5.0,97,0.00,,,0.00,0.000000,,2013-07-27 08:53:00,
2013-07-27 05:02:00,65.0,64.0,30.36,SSW,203,1.0,5.0,97,0.00,,,0.00,0.000000,,2013-07-27 09:02:00,
2013-07-27 05:33:00,64.0,64.0,30.35,NE,44,1.0,4.0,99,0.00,,,0.00,0.000000,,2013-07-27 09:33:00,
2013-07-27 05:44:00,64.0,64.0,30.35,NE,44,1.0,4.0,99,0.00,,,0.00,0.000000,,2013-07-27 09:44:00,
2013-07-27 05:52:00,64.0,64.0,30.35,NE,44,1.0,4.0,99,0.00,,,0.00,0.000000,,2013-07-27 09:52:00,
2013-07-27 06:02:00,64.0,64.0,30.35,NE,44,1.0,4.0,99,0.00,,,0.00,0.000000,,2013-07-27 10:02:00,
2013-07-27 06:44:00,66.0,66.0,30.34,ENE,60,1.0,3.0,99,0.00,,,0.00,0.000000,,2013-07-27 10:44:00,
2013-07-27 06:52:00,66.0,66.0,30.34,ENE,60,1.0,3.0,99,0.00,,,0.00,0.000000,,2013-07-27 10:52:00,
2013-07-27 07:02:00,66.0,66.0,30.34,ENE,60,1.0,3.0,99,0.00,,,0.00,0.000000,,2013-07-27 11:02:00,
2013-07-27 07:32:00,65.0,65.0,30.35,East,96,1.0,4.0,99,0.00,,,0.00,0.000000,,2013-07-27 11:32:00,
2013-07-27 07:44:00,65.0,65.0,30.35,East,96,1.0,4.0,99,0.00,,,0.00,0.000000,,2013-07-27 11:44:00,
2013-07-27 07:53:00,65.0,65.0,30.35,East,96,1.0,4.0,99,0.00,,,0.00,0.000000,,2013-07-27 11:53:00,
2013-07-27 08:03:00,65.0,65.0,30.35,East,96,1.0,4.0,99,0.00,,,0.00,0.000000,,2013-07-27 12:03:00,
2013-07-27 08:43:00,65.0,65.0,30.36,NNW,334,1.0,6.0,100,0.42,,,0.42,8.000000,,2013-07-27 12:43:00,
2013-07-27 08:52:00,65.0,65.0,30.36,NNW,334,1.0,6.0,100,0.42,,,0.42,8.000000,,2013-07-27 12:52:00,
2013-07-27 09:02:00,65.0,65.0,30.36,NNW,334,1.0,6.0,100,0.42,,,0.42,8.000000,,2013-07-27 13:02:00,
2013-07-27 09:44:00,68.0,68.0,30.36,NNE,31,1.0,4.0,100,0.00,,,0.42,73.000000,,2013-07-27 13:44:00,
2013-07-27 09:53:00,68.0,68.0,30.36,NNE,31,1.0,4.0,100,0.00,,,0.42,73.000000,,2013-07-27 13:53:00,
2013-07-27 10:02:00,68.0,68.0,30.36,NNE,31,1.0,4.0,100,0.00,,,0.42,73.000000,,2013-07-27 14:02:00,
2013-07-27 10:44:00,69.0,68.0,30.37,North,11,4.0,8.0,95,0.00,,,0.42,213.000000,,2013-07-27 14:44:00,
2013-07-27 10:54:00,69.0,68.0,30.37,North,11,4.0,8.0,95,0.00,,,0.42,213.000000,,2013-07-27 14:54:00,
2013-07-27 11:02:00,69.0,68.0,30.37,North,11,4.0,8.0,95,0.00,,,0.42,213.000000,,2013-07-27 15:02:00,
2013-07-27 11:33:00,75.0,69.0,30.35,ESE,116,2.0,6.0,83,0.00,,,0.42,321.000000,,2013-07-27 15:33:00,
2013-07-27 11:44:00,75.0,69.0,30.35,ESE,116,2.0,6.0,83,0.00,,,0.42,321.000000,,2013-07-27 15:44:00,
2013-07-27 11:53:00,75.0,69.0,30.35,ESE,116,2.0,6.0,83,0.00,,,0.42,321.000000,,2013-07-27 15:53:00,
2013-07-27 12:02:00,75.0,69.0,30.35,ESE,116,2.0,6.0,83,0.00,,,0.42,321.000000,,2013-07-27 16:02:00,
2013-07-27 12:33:00,78.0,67.0,30.34,North,357,2.0,6.0,70,0.00,,,0.42,569.000000,,2013-07-27 16:33:00,
2013-07-27 12:43:00,78.0,67.0,30.34,North,357,2.0,6.0,70,0.00,,,0.42,569.000000,,2013-07-27 16:43:00,
2013-07-27 12:54:00,78.0,67.0,30.34,North,357,2.0,6.0,70,0.00,,,0.42,569.000000,,2013-07-27 16:54:00,
2013-07-27 13:02:00,78.0,67.0,30.34,North,357,2.0,6.0,70,0.00,,,0.42,569.000000,,2013-07-27 17:02:00,
2013-07-27 13:32:00,79.0,68.0,30.33,South,187,2.0,4.0,70,0.00,,,0.42,397.000000,,2013-07-27 17:32:00,
2013-07-27 13:43:00,79.0,68.0,30.33,South,187,2.0,4.0,70,0.00,,,0.42,397.000000,,2013-07-27 17:43:00,
2013-07-27 13:54:00,79.0,68.0,30.33,South,187,2.0,4.0,70,0.00,,,0.42,397.000000,,2013-07-27 17:54:00,
2013-07-27 14:03:00,79.0,68.0,30.33,South,187,2.0,4.0,70,0.00,,,0.42,397.000000,,2013-07-27 18:03:00,
2013-07-27 14:33:00,80.0,68.0,30.31,West,259,1.0,4.0,67,0.00,,,0.42,425.000000,,2013-07-27 18:33:00,
2013-07-27 14:43:00,80.0,68.0,30.31,West,259,1.0,4.0,67,0.00,,,0.42,425.000000,,2013-07-27 18:43:00,
2013-07-27 14:53:00,80.0,68.0,30.31,West,259,1.0,4.0,67,0.00,,,0.42,425.000000,,2013-07-27 18:53:00,
2013-07-27 15:02:00,80.0,68.0,30.31,West,259,1.0,4.0,67,0.00,,,0.42,425.000000,,2013-07-27 19:02:00,
2013-07-27 15:32:00,80.0,67.0,30.29,NE,35,1.0,5.0,65,0.00,,,0.42,490.000000,,2013-07-27 19:32:00,
2013-07-27 15:43:00,80.0,67.0,30.29,NE,35,1.0,5.0,65,0.00,,,0.42,490.000000,,2013-07-27 19:43:00,
2013-07-27 15:53:00,80.0,67.0,30.29,NE,35,1.0,5.0,65,0.00,,,0.42,490.000000,,2013-07-27 19:53:00,
2013-07-27 16:02:00,80.0,67.0,30.29,NE,35,1.0,5.0,65,0.00,,,0.42,490.000000,,2013-07-27 20:02:00,
2013-07-27 16:33:00,82.0,66.0,30.27,North,8,2.0,6.0,58,0.00,,,0.42,403.000000,,2013-07-27 20:33:00,
2013-07-27 16:43:00,82.0,66.0,30.27,North,8,2.0,6.0,58,0.00,,,0.42,403.000000,,2013-07-27 20:43:00,
2013-07-27 16:52:00,82.0,66.0,30.27,North,8,2.0,6.0,58,0.00,,,0.42,403.000000,,2013-07-27 20:52:00,
2013-07-27 17:03:00,82.0,66.0,30.27,North,8,2.0,6.0,58,0.00,,,0.42,403.000000,,2013-07-27 21:03:00,
2013-07-27 17:33:00,77.0,67.0,30.27,North,5,1.0,6.0,71,0.00,,,0.42,422.000000,,2013-07-27 21:33:00,
2013-07-27 17:43:00,77.0,67.0,30.27,North,5,1.0,6.0,71,0.00,,,0.42,422.000000,,2013-07-27 21:43:00,
2013-07-27 17:53:00,77.0,67.0,30.27,North,5,1.0,6.0,71,0.00,,,0.42,422.000000,,2013-07-27 21:53:00,
2013-07-27 18:02:00,77.0,67.0,30.27,North,5,1.0,6.0,71,0.00,,,0.42,422.000000,,2013-07-27 22:02:00,
2013-07-27 18:33:00,73.0,68.0,30.27,WNW,300,1.0,3.0,85,0.02,,,0.44,180.000000,,2013-07-27 22:33:00,
2013-07-27 18:43:00,73.0,68.0,30.27,WNW,300,1.0,3.0,85,0.02,,,0.44,180.000000,,2013-07-27 22:43:00,
2013-07-27 18:53:00,73.0,68.0,30.27,WNW,300,1.0,3.0,85,0.02,,,0.44,180.000000,,2013-07-27 22:53:00,
2013-07-27 19:02:00,73.0,68.0,30.27,WNW,300,1.0,3.0,85,0.02,,,0.44,180.000000,,2013-07-27 23:02:00,
2013-07-27 19:32:00,68.0,67.0,30.29,West,264,3.0,18.0,98,0.62,,,1.06,88.000000,,2013-07-27 23:32:00,
2013-07-27 19:44:00,68.0,67.0,30.29,West,264,3.0,18.0,98,0.62,,,1.06,88.000000,,2013-07-27 23:44:00,
2013-07-27 19:53:00,68.0,67.0,30.29,West,264,3.0,18.0,98,0.62,,,1.06,88.000000,,2013-07-27 23:53:00,
2013-07-27 20:02:00,68.0,67.0,30.29,West,264,3.0,18.0,98,0.62,,,1.06,88.000000,,2013-07-28 00:02:00,
2013-07-27 20:32:00,69.0,68.0,30.29,ENE,72,1.0,4.0,98,0.00,,,1.06,97.000000,,2013-07-28 00:32:00,
2013-07-27 20:44:00,69.0,68.0,30.29,ENE,72,1.0,4.0,98,0.00,,,1.06,97.000000,,2013-07-28 00:44:00,
2013-07-27 20:53:00,69.0,68.0,30.29,ENE,72,1.0,4.0,98,0.00,,,1.06,97.000000,,2013-07-28 00:53:00,
2013-07-27 21:02:00,69.0,68.0,30.29,ENE,72,1.0,4.0,98,0.00,,,1.06,97.000000,,2013-07-28 01:02:00,
2013-07-27 21:32:00,66.0,66.0,30.31,East,82,2.0,5.0,99,0.01,,,1.07,20.000000,,2013-07-28 01:32:00,
2013-07-27 21:43:00,66.0,66.0,30.31,East,82,2.0,5.0,99,0.01,,,1.07,20.000000,,2013-07-28 01:43:00,
2013-07-27 21:53:00,66.0,66.0,30.31,East,82,2.0,5.0,99,0.01,,,1.07,20.000000,,2013-07-28 01:53:00,
2013-07-27 22:03:00,66.0,66.0,30.31,East,82,2.0,5.0,99,0.01,,,1.07,20.000000,,2013-07-28 02:03:00,
2013-07-27 22:32:00,67.0,67.0,30.32,NE,52,1.0,4.0,100,0.00,,,1.07,0.000000,,2013-07-28 02:32:00,
2013-07-27 22:42:00,67.0,67.0,30.32,NE,52,1.0,4.0,100,0.00,,,1.07,0.000000,,2013-07-28 02:42:00,
2013-07-27 22:53:00,67.0,67.0,30.32,NE,52,1.0,4.0,100,0.00,,,1.07,0.000000,,2013-07-28 02:53:00,
2013-07-27 23:03:00,67.0,67.0,30.32,NE,52,1.0,4.0,100,0.00,,,1.07,0.000000,,2013-07-28 03:03:00,
2013-07-27 23:32:00,65.0,65.0,30.32,NNW,327,2.0,3.0,100,0.00,,,1.07,0.000000,,2013-07-28 03:32:00,
2013-07-27 23:43:00,65.0,65.0,30.32,NNW,327,2.0,3.0,100,0.00,,,1.07,0.000000,,2013-07-28 03:43:00,
2013-07-27 23:53:00,65.0,65.0,30.32,NNW,327,2.0,3.0,100,0.00,,,1.07,0.000000,,2013-07-28 03:53:00,